Time;durP1;ratioP1;P1;durP2;ratioP2;P2;SDS_P1;SDS_P2;PMS_P1;PMS_P2;Temp;Humidity;BMP_temperature;BMP_pressure;BME280_temperature;BME280_humidity;BME280_pressure;Samples;Min_cycle;Max_cycle;Signal;HPM_P1;HPM_P2
2022/12/27 00:01:10;;;;;;;23.40;15.93;;;;;;;;;;5056210;28;20041;-66
2022/12/27 00:03:37;;;;;;;25.40;15.57;;;;;;;;;;5056160;28;20037;-66
2022/12/27 00:06:09;;;;;;;24.15;14.90;;;;;;;;;;5056180;28;20063;-65
2022/12/27 00:08:37;;;;;;;22.83;14.80;;;;;;;;;;5056356;28;20044;-65
2022/12/27 00:11:08;;;;;;;24.80;15.13;;;;;;;;;;5055906;28;20512;-66
2022/12/27 00:13:36;;;;;;;23.50;15.27;;;;;;;;;;5054743;28;20045;-66
2022/12/27 00:16:08;;;;;;;24.80;15.38;;;;;;;;;;5055904;28;20041;-66
2022/12/27 00:18:36;;;;;;;23.05;15.32;;;;;;;;;;5055896;28;20052;-66
2022/12/27 00:21:05;;;;;;;25.02;15.38;;;;;;;;;;5055623;28;20584;-66
2022/12/27 00:23:34;;;;;;;25.90;15.95;;;;;;;;;;5055864;28;20072;-66
2022/12/27 00:26:06;;;;;;;25.85;15.68;;;;;;;;;;5055532;28;20037;-66
2022/12/27 00:28:34;;;;;;;24.55;16.00;;;;;;;;;;5055688;28;20455;-65
2022/12/27 00:31:02;;;;;;;29.17;16.23;;;;;;;;;;5054250;28;20036;-66
2022/12/27 00:33:31;;;;;;;23.23;15.60;;;;;;;;;;5055576;28;20045;-66
2022/12/27 00:35:59;;;;;;;25.48;16.02;;;;;;;;;;5055572;28;20561;-66
2022/12/27 00:38:26;;;;;;;27.83;15.73;;;;;;;;;;5055482;28;20056;-66
2022/12/27 00:40:54;;;;;;;23.35;15.18;;;;;;;;;;5055466;28;20098;-66
2022/12/27 00:43:22;;;;;;;26.15;16.55;;;;;;;;;;5055659;28;20044;-66
2022/12/27 00:45:49;;;;;;;25.25;14.95;;;;;;;;;;5055384;28;20033;-66
2022/12/27 00:48:17;;;;;;;25.98;15.65;;;;;;;;;;5055184;28;20072;-66
2022/12/27 00:50:45;;;;;;;23.63;14.80;;;;;;;;;;5054041;28;20055;-66
2022/12/27 00:53:13;;;;;;;24.25;14.82;;;;;;;;;;5055195;28;20051;-66
2022/12/27 00:55:44;;;;;;;21.58;14.35;;;;;;;;;;5055262;28;20041;-66
2022/12/27 00:58:11;;;;;;;25.38;15.80;;;;;;;;;;5055059;28;20059;-66
2022/12/27 01:00:39;;;;;;;22.98;15.25;;;;;;;;;;5055084;28;20099;-66
2022/12/27 01:03:06;;;;;;;22.52;14.85;;;;;;;;;;5055064;28;20044;-66
2022/12/27 01:05:37;;;;;;;25.02;15.48;;;;;;;;;;5055036;28;20037;-66
2022/12/27 01:08:05;;;;;;;23.63;15.27;;;;;;;;;;5055069;28;20044;-66
2022/12/27 01:10:33;;;;;;;23.92;15.30;;;;;;;;;;5054145;28;20526;-66
2022/12/27 01:13:01;;;;;;;25.02;15.30;;;;;;;;;;5054867;28;20044;-66
2022/12/27 01:15:29;;;;;;;23.15;14.82;;;;;;;;;;5054814;28;20052;-66
2022/12/27 01:17:56;;;;;;;27.48;15.77;;;;;;;;;;5054869;28;20094;-66
2022/12/27 01:20:24;;;;;;;23.23;15.52;;;;;;;;;;5054739;28;20033;-66
2022/12/27 01:22:53;;;;;;;24.17;15.55;;;;;;;;;;5054936;28;20187;-66
2022/12/27 01:25:20;;;;;;;24.30;15.20;;;;;;;;;;5054926;28;20041;-66
2022/12/27 01:27:48;;;;;;;22.80;14.88;;;;;;;;;;5054572;28;20115;-66
2022/12/27 01:30:15;;;;;;;24.30;15.30;;;;;;;;;;5054815;28;20045;-66
2022/12/27 01:32:43;;;;;;;21.73;14.60;;;;;;;;;;5054219;28;20045;-66
2022/12/27 01:35:10;;;;;;;24.05;15.70;;;;;;;;;;5054551;28;20060;-65
2022/12/27 01:37:38;;;;;;;21.73;13.75;;;;;;;;;;5054382;28;20656;-66
2022/12/27 01:40:05;;;;;;;22.48;15.10;;;;;;;;;;5054361;28;20065;-66
2022/12/27 01:42:51;;;;;;;24.00;15.25;;;;;;;;;;5054371;28;20037;-65
2022/12/27 01:45:18;;;;;;;;;;;;;;;;;;5054770;28;20488;-66
2022/12/27 01:47:52;;;;;;;25.05;14.73;;;;;;;;;;5054498;28;19921;-66
2022/12/27 01:50:23;;;;;;;22.83;14.43;;;;;;;;;;5054075;28;20048;-66
2022/12/27 01:52:55;;;;;;;24.23;15.10;;;;;;;;;;5054049;28;20489;-66
2022/12/27 01:55:22;;;;;;;26.77;15.32;;;;;;;;;;5052985;28;20091;-66
2022/12/27 01:57:51;;;;;;;24.50;15.13;;;;;;;;;;5054108;28;20048;-66
2022/12/27 02:00:18;;;;;;;22.88;14.63;;;;;;;;;;5054006;28;20079;-66
2022/12/27 02:02:46;;;;;;;25.80;15.25;;;;;;;;;;5054034;28;20044;-66
2022/12/27 02:05:15;;;;;;;24.15;15.15;;;;;;;;;;5053966;28;20045;-66
2022/12/27 02:07:50;;;;;;;24.67;15.63;;;;;;;;;;5053920;28;20430;-66
2022/12/27 02:10:18;;;;;;;26.67;16.40;;;;;;;;;;5053777;28;20102;-66
2022/12/27 02:12:46;;;;;;;25.38;16.15;;;;;;;;;;5053834;28;20041;-66
2022/12/27 02:15:13;;;;;;;28.08;17.08;;;;;;;;;;5053787;28;20061;-66
2022/12/27 02:17:41;;;;;;;30.73;17.35;;;;;;;;;;5053667;28;20098;-66
2022/12/27 02:20:11;;;;;;;26.80;16.02;;;;;;;;;;5053791;28;20049;-66
2022/12/27 02:25:49;;;;;;;29.45;17.95;;;;;;;;;;5053311;28;20033;-66
2022/12/27 02:28:17;;;;;;;32.22;17.65;;;;;;;;;;5053553;28;20040;-66
2022/12/27 02:30:46;;;;;;;34.95;19.30;;;;;;;;;;5053154;28;20041;-66
2022/12/27 02:33:17;;;;;;;34.85;19.52;;;;;;;;;;5053198;28;20078;-66
2022/12/27 02:35:50;;;;;;;31.88;18.20;;;;;;;;;;5053251;28;20450;-66
2022/12/27 02:38:22;;;;;;;32.55;18.70;;;;;;;;;;5053220;28;20041;-66
2022/12/27 02:55:20;;;;;;;30.77;18.23;;;;;;;;;;5052834;28;20045;-66
2022/12/27 02:57:54;;;;;;;29.92;17.67;;;;;;;;;;5051646;28;20411;-66
2022/12/27 03:03:41;;;;;;;29.63;18.02;;;;;;;;;;5052912;28;20490;-66
2022/12/27 03:17:54;;;;;;;31.20;19.13;;;;;;;;;;5041528;28;20055;-65
2022/12/27 03:25:55;;;;;;;31.85;19.88;;;;;;;;;;5052350;28;20041;-66
2022/12/27 03:34:30;;;;;;;32.22;19.70;;;;;;;;;;5051973;28;20491;-66
2022/12/27 03:39:51;;;;;;;31.92;19.05;;;;;;;;;;5052409;28;20037;-66
2022/12/27 03:45:20;;;;;;;37.28;19.58;;;;;;;;;;5052340;28;20037;-66
2022/12/27 03:47:52;;;;;;;35.08;20.33;;;;;;;;;;5052183;28;20049;-66
2022/12/27 03:50:29;;;;;;;34.08;20.10;;;;;;;;;;5052500;28;20045;-66
2022/12/27 03:53:06;;;;;;;34.72;20.45;;;;;;;;;;5052148;28;20099;-66
2022/12/27 03:55:35;;;;;;;30.02;19.02;;;;;;;;;;5050969;28;20033;-66
2022/12/27 03:58:03;;;;;;;33.50;19.88;;;;;;;;;;5052283;28;20442;-66
2022/12/27 04:00:30;;;;;;;32.53;19.13;;;;;;;;;;5052046;28;20499;-66
2022/12/27 04:02:58;;;;;;;32.15;20.00;;;;;;;;;;5052104;28;20458;-66
2022/12/27 04:05:26;;;;;;;33.83;20.45;;;;;;;;;;5052096;28;20049;-66
2022/12/27 04:35:35;;;;;;;32.20;19.35;;;;;;;;;;5051896;28;20041;-66
2022/12/27 04:38:02;;;;;;;30.23;19.30;;;;;;;;;;5052004;28;20118;-66
2022/12/27 04:57:08;;;;;;;31.17;18.85;;;;;;;;;;5055270;28;20479;-67
2022/12/27 05:02:21;;;;;;;30.08;18.80;;;;;;;;;;5055202;28;20041;-66
2022/12/27 05:04:49;;;;;;;29.17;18.60;;;;;;;;;;5055075;28;20033;-66
2022/12/27 05:15:37;;;;;;;30.85;18.85;;;;;;;;;;5055060;28;20116;-67
2022/12/27 05:18:04;;;;;;;32.22;18.85;;;;;;;;;;5054932;28;20376;-66
2022/12/27 05:20:33;;;;;;;36.05;22.27;;;;;;;;;;5054891;28;20528;-66
2022/12/27 05:25:47;;;;;;;28.08;18.23;;;;;;;;;;5054817;28;20372;-65
2022/12/27 05:28:14;;;;;;;28.42;17.40;;;;;;;;;;5054608;28;20569;-65
2022/12/27 05:30:43;;;;;;;30.27;18.48;;;;;;;;;;5054737;28;20394;-65
2022/12/27 05:33:10;;;;;;;32.90;20.23;;;;;;;;;;5054491;28;20098;-65
2022/12/27 05:35:38;;;;;;;30.95;19.60;;;;;;;;;;5036656;28;20069;-65
2022/12/27 05:38:05;;;;;;;31.05;19.95;;;;;;;;;;5054526;28;20048;-66
2022/12/27 05:40:33;;;;;;;37.80;21.20;;;;;;;;;;5054229;28;20041;-65
2022/12/27 05:43:02;;;;;;;35.40;21.35;;;;;;;;;;5054229;28;20049;-65
2022/12/27 05:45:29;;;;;;;38.08;22.45;;;;;;;;;;5054181;28;20115;-65
2022/12/27 05:47:58;;;;;;;38.30;23.35;;;;;;;;;;5054277;28;20091;-65
2022/12/27 05:50:26;;;;;;;39.80;23.73;;;;;;;;;;5054259;28;20045;-66
2022/12/27 05:53:09;;;;;;;34.42;22.08;;;;;;;;;;5054097;28;20049;-65
2022/12/27 05:55:36;;;;;;;41.45;23.95;;;;;;;;;;5053947;28;20040;-65
2022/12/27 05:58:03;;;;;;;41.00;24.65;;;;;;;;;;5053988;28;20047;-66
2022/12/27 06:00:31;;;;;;;40.15;23.25;;;;;;;;;;5054017;28;20071;-65
2022/12/27 06:02:58;;;;;;;42.40;24.33;;;;;;;;;;5053807;28;20495;-66
2022/12/27 06:05:27;;;;;;;37.50;22.70;;;;;;;;;;5053774;28;20041;-65
2022/12/27 06:07:54;;;;;;;39.05;22.92;;;;;;;;;;5056197;28;20041;-65
2022/12/27 06:10:22;;;;;;;37.13;23.08;;;;;;;;;;5062447;28;20041;-66
2022/12/27 06:12:49;;;;;;;36.50;22.50;;;;;;;;;;5070725;28;20044;-65
2022/12/27 06:15:17;;;;;;;35.95;21.85;;;;;;;;;;5072340;28;20048;-66
2022/12/27 06:17:44;;;;;;;38.58;21.70;;;;;;;;;;5073771;28;20571;-65
2022/12/27 06:20:12;;;;;;;36.72;21.77;;;;;;;;;;5073580;28;20036;-65
2022/12/27 06:22:39;;;;;;;39.38;23.33;;;;;;;;;;5073604;28;20044;-66
2022/12/27 06:25:07;;;;;;;36.35;22.30;;;;;;;;;;5073638;28;20394;-65
2022/12/27 06:27:40;;;;;;;41.03;25.77;;;;;;;;;;5073690;28;20068;-66
2022/12/27 06:30:10;;;;;;;40.17;25.17;;;;;;;;;;5073736;28;20071;-66
2022/12/27 06:32:38;;;;;;;41.20;25.17;;;;;;;;;;5073125;28;20384;-66
2022/12/27 06:35:07;;;;;;;39.67;24.48;;;;;;;;;;5073475;28;20041;-66
2022/12/27 06:37:34;;;;;;;43.05;26.10;;;;;;;;;;5073225;28;20483;-66
2022/12/27 06:40:01;;;;;;;48.65;32.95;;;;;;;;;;5073175;28;20114;-66
2022/12/27 06:42:29;;;;;;;44.22;28.35;;;;;;;;;;5073441;28;20402;-66
2022/12/27 06:44:57;;;;;;;39.97;24.95;;;;;;;;;;5073113;28;20094;-66
2022/12/27 06:47:24;;;;;;;45.25;26.08;;;;;;;;;;5073106;28;20047;-66
2022/12/27 06:49:52;;;;;;;44.67;27.23;;;;;;;;;;5073075;28;20119;-66
2022/12/27 06:52:21;;;;;;;44.35;26.88;;;;;;;;;;5072960;28;20082;-65
2022/12/27 06:54:49;;;;;;;44.38;27.17;;;;;;;;;;5072908;28;20044;-67
2022/12/27 06:57:16;;;;;;;46.58;28.52;;;;;;;;;;5073137;28;20111;-66
2022/12/27 06:59:44;;;;;;;44.92;27.80;;;;;;;;;;5073047;28;20486;-66
2022/12/27 07:02:20;;;;;;;45.70;27.45;;;;;;;;;;5073328;28;20397;-66
2022/12/27 07:04:47;;;;;;;51.50;30.15;;;;;;;;;;5072894;28;20132;-66
2022/12/27 07:07:15;;;;;;;52.30;31.00;;;;;;;;;;5072392;28;20542;-66
2022/12/27 07:09:42;;;;;;;49.38;30.83;;;;;;;;;;5072705;28;20044;-66
2022/12/27 07:12:10;;;;;;;51.38;30.35;;;;;;;;;;5072350;28;20401;-66
2022/12/27 07:14:37;;;;;;;50.33;29.45;;;;;;;;;;5072614;28;20056;-66
2022/12/27 07:17:04;;;;;;;55.53;30.15;;;;;;;;;;5072648;28;20120;-67
2022/12/27 07:19:32;;;;;;;52.30;29.88;;;;;;;;;;5072981;28;20482;-66
2022/12/27 07:21:59;;;;;;;52.20;29.90;;;;;;;;;;5072852;28;20394;-66
2022/12/27 07:24:28;;;;;;;54.38;31.23;;;;;;;;;;5072579;28;20037;-66
2022/12/27 07:26:55;;;;;;;49.90;30.70;;;;;;;;;;5072645;28;20371;-66
2022/12/27 07:29:23;;;;;;;49.50;29.90;;;;;;;;;;5072509;28;20044;-66
2022/12/27 07:31:50;;;;;;;53.20;30.77;;;;;;;;;;5054755;28;20057;-66
2022/12/27 07:34:17;;;;;;;62.50;35.78;;;;;;;;;;5072827;28;20043;-66
2022/12/27 07:36:45;;;;;;;59.38;32.78;;;;;;;;;;5071242;28;20071;-66
2022/12/27 07:39:12;;;;;;;54.35;32.88;;;;;;;;;;5072643;28;20036;-66
2022/12/27 07:41:40;;;;;;;56.75;33.75;;;;;;;;;;5071342;28;20106;-66
2022/12/27 07:44:07;;;;;;;60.78;35.83;;;;;;;;;;5072394;28;20044;-64
2022/12/27 07:46:35;;;;;;;63.28;35.20;;;;;;;;;;5072492;28;20044;-66
2022/12/27 07:49:03;;;;;;;68.88;38.03;;;;;;;;;;5072382;28;20102;-66
2022/12/27 07:51:30;;;;;;;70.07;36.75;;;;;;;;;;5072433;28;20040;-66
2022/12/27 07:53:58;;;;;;;56.22;33.10;;;;;;;;;;5072296;28;20048;-64
2022/12/27 07:56:27;;;;;;;54.63;31.63;;;;;;;;;;5072373;28;20044;-66
2022/12/27 07:58:55;;;;;;;43.03;25.98;;;;;;;;;;5072382;28;20517;-66
2022/12/27 08:01:23;;;;;;;39.17;24.88;;;;;;;;;;5072319;28;20041;-66
2022/12/27 08:03:51;;;;;;;40.22;23.83;;;;;;;;;;5072481;28;20090;-65
2022/12/27 08:06:24;;;;;;;37.80;23.27;;;;;;;;;;5072575;28;20068;-65
2022/12/27 08:08:52;;;;;;;33.10;21.92;;;;;;;;;;5072289;28;20047;-65
2022/12/27 08:11:20;;;;;;;35.35;23.08;;;;;;;;;;5072232;28;20236;-65
2022/12/27 08:13:47;;;;;;;36.30;22.25;;;;;;;;;;5072165;28;20040;-65
2022/12/27 08:16:24;;;;;;;36.03;22.58;;;;;;;;;;5072220;28;20069;-65
2022/12/27 08:18:52;;;;;;;35.22;22.48;;;;;;;;;;5072088;28;20413;-66
2022/12/27 08:21:19;;;;;;;35.30;22.13;;;;;;;;;;5075337;28;20611;-66
2022/12/27 08:23:48;;;;;;;34.97;22.65;;;;;;;;;;5075777;28;20041;-66
2022/12/27 08:26:16;;;;;;;33.30;21.95;;;;;;;;;;5075756;28;20440;-66
2022/12/27 08:28:43;;;;;;;37.08;23.30;;;;;;;;;;5074192;28;20059;-66
2022/12/27 08:31:12;;;;;;;33.83;21.35;;;;;;;;;;5075682;28;20041;-66
2022/12/27 08:33:40;;;;;;;28.50;19.73;;;;;;;;;;5075220;28;20084;-66
2022/12/27 08:36:09;;;;;;;29.80;20.05;;;;;;;;;;5075639;28;20045;-66
2022/12/27 08:38:57;;;;;;;29.10;20.30;;;;;;;;;;5075319;28;20048;-66
2022/12/27 08:41:24;;;;;;;31.20;20.42;;;;;;;;;;5075454;28;20433;-66
2022/12/27 08:43:52;;;;;;;29.10;18.60;;;;;;;;;;5075569;28;20044;-66
2022/12/27 08:46:19;;;;;;;31.85;20.50;;;;;;;;;;5075560;28;20037;-66
2022/12/27 08:48:47;;;;;;;30.42;19.63;;;;;;;;;;5075580;28;20122;-66
2022/12/27 08:51:15;;;;;;;30.38;20.40;;;;;;;;;;5075335;28;20050;-66
2022/12/27 08:53:57;;;;;;;32.95;19.73;;;;;;;;;;5075171;28;20119;-66
2022/12/27 08:56:25;;;;;;;30.25;20.33;;;;;;;;;;5075401;28;20559;-66
2022/12/27 08:58:52;;;;;;;34.92;21.98;;;;;;;;;;5075216;28;20036;-66
2022/12/27 09:01:20;;;;;;;35.90;24.17;;;;;;;;;;5075460;28;20040;-66
2022/12/27 09:03:47;;;;;;;31.35;21.88;;;;;;;;;;5075296;28;20102;-66
2022/12/27 09:06:16;;;;;;;29.70;20.42;;;;;;;;;;5075148;28;20052;-66
2022/12/27 09:08:45;;;;;;;33.03;21.58;;;;;;;;;;5074899;28;20406;-66
2022/12/27 09:11:17;;;;;;;32.38;20.75;;;;;;;;;;5074984;28;20106;-66
2022/12/27 09:13:45;;;;;;;32.33;19.85;;;;;;;;;;5074915;28;20449;-66
2022/12/27 09:16:14;;;;;;;30.77;19.50;;;;;;;;;;5074898;28;20078;-66
2022/12/27 09:18:42;;;;;;;26.77;18.23;;;;;;;;;;5075324;28;20036;-67
2022/12/27 09:21:11;;;;;;;25.83;16.65;;;;;;;;;;5074944;28;20493;-66
2022/12/27 09:23:40;;;;;;;27.70;18.58;;;;;;;;;;5073524;28;20098;-66
2022/12/27 09:26:08;;;;;;;29.33;18.95;;;;;;;;;;5074850;28;20434;-66
2022/12/27 09:28:36;;;;;;;27.42;19.38;;;;;;;;;;5074501;28;20401;-66
2022/12/27 09:31:03;;;;;;;27.58;19.55;;;;;;;;;;5074230;28;20040;-66
2022/12/27 09:33:31;;;;;;;28.45;20.27;;;;;;;;;;5074215;28;20110;-66
2022/12/27 09:36:03;;;;;;;27.83;19.50;;;;;;;;;;5074888;28;20499;-66
2022/12/27 09:38:31;;;;;;;26.25;18.88;;;;;;;;;;5074655;28;20054;-66
2022/12/27 09:41:00;;;;;;;28.42;18.42;;;;;;;;;;5073388;28;20494;-66
2022/12/27 09:43:36;;;;;;;22.88;15.43;;;;;;;;;;5074326;28;20041;-66
2022/12/27 09:46:07;;;;;;;22.98;15.10;;;;;;;;;;5074044;28;20040;-66
2022/12/27 09:48:37;;;;;;;17.98;12.90;;;;;;;;;;5074065;28;20180;-66
2022/12/27 09:51:09;;;;;;;17.92;12.15;;;;;;;;;;5074280;28;20037;-67
2022/12/27 09:53:43;;;;;;;22.67;14.73;;;;;;;;;;5074074;28;20075;-66
2022/12/27 09:56:17;;;;;;;27.08;19.95;;;;;;;;;;5074187;28;20079;-66
2022/12/27 09:58:52;;;;;;;28.77;20.00;;;;;;;;;;5074056;28;20075;-67
2022/12/27 10:01:30;;;;;;;28.83;21.15;;;;;;;;;;5074054;28;20498;-66
2022/12/27 10:03:59;;;;;;;26.08;18.38;;;;;;;;;;5073922;28;20049;-67
2022/12/27 10:06:33;;;;;;;27.67;19.25;;;;;;;;;;5073908;28;20098;-67
2022/12/27 10:09:19;;;;;;;26.83;17.60;;;;;;;;;;5073720;28;20072;-67
2022/12/27 10:11:54;;;;;;;22.50;15.57;;;;;;;;;;5073932;28;20040;-67
2022/12/27 10:14:30;;;;;;;22.48;17.00;;;;;;;;;;5073680;28;20047;-67
2022/12/27 10:17:24;;;;;;;22.08;15.40;;;;;;;;;;5073914;28;20037;-66
2022/12/27 10:19:54;;;;;;;18.67;13.80;;;;;;;;;;5065013;28;20044;-66
2022/12/27 10:22:26;;;;;;;21.25;13.25;;;;;;;;;;5073526;28;20052;-66
2022/12/27 10:24:56;;;;;;;17.55;13.35;;;;;;;;;;5073153;28;20032;-66
2022/12/27 10:27:25;;;;;;;18.63;13.07;;;;;;;;;;5073415;28;20447;-71
2022/12/27 10:29:53;;;;;;;19.52;13.90;;;;;;;;;;5073722;28;20047;-69
2022/12/27 10:32:21;;;;;;;19.33;13.13;;;;;;;;;;5069967;28;20044;-70
2022/12/27 10:34:53;;;;;;;20.05;14.02;;;;;;;;;;5055947;28;20513;-70
2022/12/27 10:37:20;;;;;;;20.73;14.68;;;;;;;;;;5053327;28;20087;-71
2022/12/27 10:39:48;;;;;;;19.70;14.18;;;;;;;;;;5053385;28;20041;-71
2022/12/27 10:42:30;;;;;;;22.45;14.68;;;;;;;;;;5052892;28;20406;-70
2022/12/27 10:45:16;;;;;;;22.33;15.32;;;;;;;;;;5053131;28;20064;-71
2022/12/27 10:47:43;;;;;;;19.25;14.68;;;;;;;;;;5058317;28;20047;-73
2022/12/27 10:50:12;;;;;;;23.83;15.13;;;;;;;;;;5053009;28;20548;-72
2022/12/27 10:52:39;;;;;;;23.15;14.57;;;;;;;;;;5053190;28;20068;-72
2022/12/27 10:55:27;;;;;;;20.50;14.05;;;;;;;;;;5052937;28;20041;-72
2022/12/27 10:57:54;;;;;;;21.63;14.90;;;;;;;;;;5052904;28;20099;-72
2022/12/27 11:00:22;;;;;;;21.08;13.68;;;;;;;;;;5053045;28;20123;-70
2022/12/27 11:02:50;;;;;;;21.15;14.35;;;;;;;;;;5052876;28;20033;-71
2022/12/27 11:05:22;;;;;;;20.52;14.07;;;;;;;;;;5052710;28;20114;-69
2022/12/27 11:07:49;;;;;;;17.65;13.13;;;;;;;;;;5064558;28;20502;-69
2022/12/27 11:10:18;;;;;;;21.30;13.75;;;;;;;;;;5072652;28;20072;-70
2022/12/27 11:12:56;;;;;;;21.73;13.43;;;;;;;;;;5071787;28;20381;-70
2022/12/27 11:15:25;;;;;;;19.65;12.95;;;;;;;;;;5071475;28;20049;-70
2022/12/27 11:17:52;;;;;;;19.30;12.63;;;;;;;;;;5072728;28;20095;-70
2022/12/27 11:20:20;;;;;;;19.13;13.10;;;;;;;;;;5072597;28;20045;-70
2022/12/27 11:22:52;;;;;;;18.30;12.90;;;;;;;;;;5072529;28;20112;-70
2022/12/27 11:25:19;;;;;;;16.77;12.02;;;;;;;;;;5072549;28;20050;-70
2022/12/27 11:27:49;;;;;;;16.52;11.90;;;;;;;;;;5071424;28;20037;-70
2022/12/27 11:30:24;;;;;;;18.40;13.00;;;;;;;;;;5072526;28;20045;-70
2022/12/27 11:32:52;;;;;;;;;;;;;;;;;;5072860;28;20047;-70
2022/12/27 11:35:21;;;;;;;18.85;11.98;;;;;;;;;;5072440;28;19920;-70
2022/12/27 11:37:48;;;;;;;19.08;11.68;;;;;;;;;;5072523;28;20478;-70
2022/12/27 11:40:22;;;;;;;18.40;11.60;;;;;;;;;;5072348;28;20075;-70
2022/12/27 11:42:57;;;;;;;15.65;11.48;;;;;;;;;;5072263;28;20045;-70
2022/12/27 11:45:29;;;;;;;19.27;11.95;;;;;;;;;;5072530;28;20433;-69
2022/12/27 11:48:00;;;;;;;16.50;10.63;;;;;;;;;;5072820;28;20048;-70
2022/12/27 11:50:28;;;;;;;14.85;10.95;;;;;;;;;;5072361;28;20067;-68
2022/12/27 11:53:26;;;;;;;15.57;10.07;;;;;;;;;;5072397;28;20032;-69
2022/12/27 11:56:12;;;;;;;15.10;10.73;;;;;;;;;;5076707;28;20128;-68
2022/12/27 11:58:56;;;;;;;15.40;10.18;;;;;;;;;;5076249;28;20052;-69
2022/12/27 12:01:27;;;;;;;16.08;11.38;;;;;;;;;;5075855;28;20041;-68
2022/12/27 12:04:14;;;;;;;14.52;10.90;;;;;;;;;;5076110;28;20113;-69
2022/12/27 12:07:00;;;;;;;15.43;10.68;;;;;;;;;;5076211;28;20494;-69
2022/12/27 12:09:27;;;;;;;14.15;10.88;;;;;;;;;;5076171;28;20040;-68
2022/12/27 12:12:01;;;;;;;15.88;11.15;;;;;;;;;;5076233;28;20040;-69
2022/12/27 12:14:29;;;;;;;14.90;11.27;;;;;;;;;;5076065;28;20120;-69
2022/12/27 12:16:56;;;;;;;16.17;10.80;;;;;;;;;;5076084;28;20082;-69
2022/12/27 12:19:33;;;;;;;14.65;11.00;;;;;;;;;;5076022;28;20055;-69
2022/12/27 12:22:16;;;;;;;15.57;11.50;;;;;;;;;;5075917;28;20037;-69
2022/12/27 12:24:57;;;;;;;15.00;11.10;;;;;;;;;;5075847;28;20546;-69
2022/12/27 12:27:25;;;;;;;13.05;9.50;;;;;;;;;;5075905;28;20044;-70
2022/12/27 12:30:14;;;;;;;13.60;9.45;;;;;;;;;;5075833;28;20383;-70
2022/12/27 12:32:54;;;;;;;15.05;9.77;;;;;;;;;;5075570;28;20057;-69
2022/12/27 12:35:40;;;;;;;12.60;8.82;;;;;;;;;;5075594;28;20119;-70
2022/12/27 12:38:21;;;;;;;13.07;8.35;;;;;;;;;;5075564;28;20041;-70
2022/12/27 12:41:00;;;;;;;12.18;8.40;;;;;;;;;;5074500;28;20486;-69
2022/12/27 12:43:43;;;;;;;11.50;8.20;;;;;;;;;;5075644;28;20043;-69
2022/12/27 12:46:11;;;;;;;12.02;8.35;;;;;;;;;;5075524;28;20127;-70
2022/12/27 12:49:14;;;;;;;13.82;9.07;;;;;;;;;;5074188;28;20044;-70
2022/12/27 12:52:00;;;;;;;12.68;8.77;;;;;;;;;;5036365;28;20045;-70
2022/12/27 12:54:27;;;;;;;11.77;8.50;;;;;;;;;;5073889;28;20041;-70
2022/12/27 12:57:01;;;;;;;12.32;8.48;;;;;;;;;;5073945;28;20106;-71
2022/12/27 12:59:39;;;;;;;11.55;9.02;;;;;;;;;;5075197;28;20047;-70
2022/12/27 13:02:26;;;;;;;12.85;9.07;;;;;;;;;;5075134;28;20116;-70
2022/12/27 13:05:07;;;;;;;13.38;8.52;;;;;;;;;;5074791;28;20051;-71
2022/12/27 13:07:39;;;;;;;13.02;9.18;;;;;;;;;;5074745;28;20445;-71
2022/12/27 13:10:09;;;;;;;12.15;8.85;;;;;;;;;;5074894;28;20486;-70
2022/12/27 13:12:45;;;;;;;10.50;8.35;;;;;;;;;;5074957;28;20063;-71
2022/12/27 13:15:28;;;;;;;13.23;8.75;;;;;;;;;;5073795;28;20044;-71
2022/12/27 13:18:01;;;;;;;11.60;8.85;;;;;;;;;;5074911;28;20112;-71
2022/12/27 13:20:40;;;;;;;14.27;8.85;;;;;;;;;;5074968;28;20047;-71
2022/12/27 13:23:10;;;;;;;11.23;7.65;;;;;;;;;;5074942;28;20036;-71
2022/12/27 13:25:38;;;;;;;11.45;8.45;;;;;;;;;;5073912;28;20051;-71
2022/12/27 13:28:05;;;;;;;9.88;7.32;;;;;;;;;;5074665;28;20083;-71
2022/12/27 13:30:42;;;;;;;10.68;7.70;;;;;;;;;;5073437;28;20048;-70
2022/12/27 13:33:21;;;;;;;12.30;7.82;;;;;;;;;;5074679;28;20139;-71
2022/12/27 13:36:06;;;;;;;11.48;7.88;;;;;;;;;;5074427;28;20525;-70
2022/12/27 13:38:50;;;;;;;12.65;8.32;;;;;;;;;;5074758;28;20051;-70
2022/12/27 13:41:24;;;;;;;10.75;7.07;;;;;;;;;;5074516;28;20041;-70
2022/12/27 13:44:00;;;;;;;11.88;7.70;;;;;;;;;;5074742;28;20048;-70
2022/12/27 13:47:00;;;;;;;10.27;7.47;;;;;;;;;;5074666;28;20053;-70
2022/12/27 13:49:27;;;;;;;10.02;7.00;;;;;;;;;;5051243;28;20052;-70
2022/12/27 13:52:00;;;;;;;9.48;7.40;;;;;;;;;;5074306;28;20041;-70
2022/12/27 13:54:46;;;;;;;8.90;6.95;;;;;;;;;;5074144;28;20040;-70
2022/12/27 13:57:23;;;;;;;9.23;6.57;;;;;;;;;;5074210;28;20044;-69
2022/12/27 13:59:50;;;;;;;10.63;7.07;;;;;;;;;;5074438;28;20382;-69
2022/12/27 14:02:33;;;;;;;12.25;7.30;;;;;;;;;;5073996;28;20082;-69
2022/12/27 14:05:01;;;;;;;10.18;6.93;;;;;;;;;;5074109;28;20040;-69
2022/12/27 14:07:37;;;;;;;8.52;6.32;;;;;;;;;;5073866;28;20037;-70
2022/12/27 14:10:14;;;;;;;7.53;5.85;;;;;;;;;;5074199;28;20074;-69
2022/12/27 14:12:54;;;;;;;11.07;6.90;;;;;;;;;;5073766;28;20525;-69
2022/12/27 14:15:25;;;;;;;8.00;5.88;;;;;;;;;;5073757;28;20044;-69
2022/12/27 14:17:55;;;;;;;9.93;6.20;;;;;;;;;;5074379;28;20037;-69
2022/12/27 14:20:22;;;;;;;8.70;5.55;;;;;;;;;;5072345;28;20429;-70
2022/12/27 14:23:02;;;;;;;7.40;5.55;;;;;;;;;;5073753;28;20094;-70
2022/12/27 14:25:39;;;;;;;5.75;4.38;;;;;;;;;;5074008;28;20060;-70
2022/12/27 14:28:20;;;;;;;8.68;5.05;;;;;;;;;;5073586;28;20405;-70
2022/12/27 14:31:03;;;;;;;5.78;4.22;;;;;;;;;;5073465;28;20517;-70
2022/12/27 14:33:42;;;;;;;5.50;4.10;;;;;;;;;;5073220;28;20052;-70
2022/12/27 14:36:28;;;;;;;6.80;3.88;;;;;;;;;;5072031;28;20045;-70
2022/12/27 14:39:17;;;;;;;6.47;4.00;;;;;;;;;;5073633;28;20093;-70
2022/12/27 14:42:04;;;;;;;7.47;4.80;;;;;;;;;;5065868;28;20061;-70
2022/12/27 14:44:51;;;;;;;6.78;5.43;;;;;;;;;;5033227;28;20029;-65
2022/12/27 14:47:22;;;;;;;8.25;5.93;;;;;;;;;;5052633;28;20461;-68
2022/12/27 14:49:52;;;;;;;9.57;6.20;;;;;;;;;;5052449;28;20194;-67
2022/12/27 14:52:29;;;;;;;9.48;5.97;;;;;;;;;;5054950;28;20493;-70
2022/12/27 14:55:08;;;;;;;8.27;6.25;;;;;;;;;;5052882;28;20053;-66
2022/12/27 14:57:42;;;;;;;8.68;6.10;;;;;;;;;;5052799;28;20487;-66
2022/12/27 15:00:15;;;;;;;7.22;5.70;;;;;;;;;;5054268;28;20680;-67
2022/12/27 15:03:02;;;;;;;9.82;6.88;;;;;;;;;;5053158;28;20102;-68
2022/12/27 15:05:53;;;;;;;11.38;7.35;;;;;;;;;;5052151;28;20032;-67
2022/12/27 15:08:21;;;;;;;16.25;9.75;;;;;;;;;;5051980;28;20109;-67
2022/12/27 15:10:48;;;;;;;10.73;7.25;;;;;;;;;;5051122;28;20442;-67
2022/12/27 15:13:17;;;;;;;9.82;6.95;;;;;;;;;;5052304;28;20037;-68
2022/12/27 15:16:10;;;;;;;8.55;6.22;;;;;;;;;;5052542;28;20621;-68
2022/12/27 15:19:01;;;;;;;9.80;6.85;;;;;;;;;;5048333;28;20059;-68
2022/12/27 15:21:44;;;;;;;10.18;6.57;;;;;;;;;;5050623;28;20088;-68
2022/12/27 15:24:20;;;;;;;11.20;6.70;;;;;;;;;;5041222;28;20479;-67
2022/12/27 15:26:48;;;;;;;12.70;7.95;;;;;;;;;;5044971;28;20041;-68
2022/12/27 15:29:28;;;;;;;12.55;7.85;;;;;;;;;;5049824;28;20087;-68
2022/12/27 15:31:55;;;;;;;10.35;7.82;;;;;;;;;;5047995;28;20049;-68
2022/12/27 15:34:35;;;;;;;11.90;8.27;;;;;;;;;;5049852;28;20391;-69
2022/12/27 15:37:04;;;;;;;14.13;8.73;;;;;;;;;;5040200;28;20250;-69
2022/12/27 15:39:34;;;;;;;15.85;9.82;;;;;;;;;;5031871;28;20517;-70
2022/12/27 15:42:08;;;;;;;11.68;8.70;;;;;;;;;;5040811;28;20518;-68
2022/12/27 15:44:35;;;;;;;13.60;8.52;;;;;;;;;;5052022;28;20132;-67
2022/12/27 15:47:09;;;;;;;11.23;8.45;;;;;;;;;;5051390;28;20053;-67
2022/12/27 15:49:54;;;;;;;13.38;8.63;;;;;;;;;;5038901;28;20034;-66
2022/12/27 15:52:28;;;;;;;15.90;9.93;;;;;;;;;;5031922;28;20049;-66
2022/12/27 15:55:10;;;;;;;16.33;10.25;;;;;;;;;;5045515;28;20048;-66
2022/12/27 15:58:00;;;;;;;14.68;10.52;;;;;;;;;;5033011;28;20683;-65
2022/12/27 16:00:29;;;;;;;12.93;9.55;;;;;;;;;;5039688;28;20072;-65
2022/12/27 16:03:02;;;;;;;14.18;9.82;;;;;;;;;;5051428;28;20064;-66
2022/12/27 16:05:44;;;;;;;12.95;8.88;;;;;;;;;;5051496;28;20037;-65
2022/12/27 16:08:11;;;;;;;12.50;8.88;;;;;;;;;;5051389;28;20531;-68
2022/12/27 16:10:40;;;;;;;12.38;8.57;;;;;;;;;;5051402;28;20052;-68
2022/12/27 16:13:10;;;;;;;11.27;8.60;;;;;;;;;;5051651;28;20045;-67
2022/12/27 16:15:46;;;;;;;13.82;8.65;;;;;;;;;;5051511;28;20131;-68
2022/12/27 16:18:23;;;;;;;11.38;8.40;;;;;;;;;;5051075;28;20033;-67
2022/12/27 16:20:57;;;;;;;11.82;8.30;;;;;;;;;;5051306;28;20045;-68
2022/12/27 16:23:26;;;;;;;10.50;7.55;;;;;;;;;;5051129;28;20445;-67
2022/12/27 16:26:05;;;;;;;10.43;7.25;;;;;;;;;;5051236;28;20056;-68
2022/12/27 16:28:34;;;;;;;9.52;7.00;;;;;;;;;;5051033;28;20033;-68
2022/12/27 16:31:03;;;;;;;11.45;7.55;;;;;;;;;;5044568;28;20455;-68
2022/12/27 16:33:36;;;;;;;10.38;7.85;;;;;;;;;;5049760;28;20080;-67
2022/12/27 16:36:12;;;;;;;9.60;6.43;;;;;;;;;;5037720;28;20086;-67
2022/12/27 16:38:51;;;;;;;9.83;6.40;;;;;;;;;;5050493;28;20450;-67